Houston, TX

3:37 PM CDT on July 27, 2016 (GMT -0500)
George Bush Intercontinental-Houston Airport | | Change Station

Elev 108 ft 29.98 °N, 95.34 °W | Updated 44 minutes ago

Light Rain
Light Rain
79 °F
Feels Like 79 °F
N
6
Wind Variable Wind from SE

Today
High -- | Low -- °F
--% Chance of Precip.
Yesterday
High -- | Low -- °F
Precip. -- in
Pressure 29.99 in
Visibility 10.0 miles
Clouds Few 700 ft
Scattered Clouds 2000 ft
Mostly Cloudy 9000 ft
Mostly Cloudy 15000 ft
Dew Point 75 °F
Humidity 88%
Rainfall 0.22 in
Snow Depth Not available.
6:37 AM 8:17 PM
Last Quarter, 40% visible
METAR KIAH 271953Z 14005KT 10SM -RA FEW007 SCT020 BKN090 BKN150 26/24 A2999 RMK AO2 RAB51 SLP156 P0000 T02610239
Pressure 29.99 in
Visibility 10.0 miles
Clouds Few 700 ft
Scattered Clouds 2000 ft
Mostly Cloudy 9000 ft
Mostly Cloudy 15000 ft
Dew Point 75 °F
Humidity 88%
Rainfall 0.22 in
Snow Depth Not available.
6:37 AM 8:17 PM
Last Quarter, 40% visible
METAR KIAH 271953Z 14005KT 10SM -RA FEW007 SCT020 BKN090 BKN150 26/24 A2999 RMK AO2 RAB51 SLP156 P0000 T02610239

10-Day Weather Forecast

Almanac

Astronomy

Jul. 27, 2016 Rise Set
Actual Time
Civil Twilight
Nautical Twilight
Astronomical Twilight
Moon
Length of Visible Light
Length of Day
Tomorrow will be .
, % of the Moon is Illuminated

Today's Extremes

State Highs State Lows

Community

WunderPhotos

Upload Photos

1,927,933 photos uploaded!

WunderBlog® & News

Nearby

Air Quality

  Air Quality AQ Index Pollutant
Not available.

Snow Depth

Station Depth Elevation

Earthquake Activity

City Distance Mag. Time & Date
Minimum magnitude displayed is 2.5.

Coastal Water Temperatures

Place Temperature

Stations

Nearby Weather Stations

Station Location Temp. Windchill Dew Point Humidity Wind Precip. Elev Updated Type
                   

Watches & Warnings

There are currently no watches in effect.